sensor_id;sensor_type;location;lat;lon;timestamp;pressure;altitude;pressure_sealevel;temperature;humidity
53932;BME280;39844;52.496;13.482;2023-06-22T00:01:55;101615.09;;;21.29;76.15
53932;BME280;39844;52.496;13.482;2023-06-22T00:04:20;101629.63;;;21.20;75.81
53932;BME280;39844;52.496;13.482;2023-06-22T00:06:46;101626.25;;;21.15;77.23
53932;BME280;39844;52.496;13.482;2023-06-22T00:09:11;101630.88;;;21.10;76.86
53932;BME280;39844;52.496;13.482;2023-06-22T00:11:37;101624.72;;;21.08;77.89
53932;BME280;39844;52.496;13.482;2023-06-22T00:14:03;101639.94;;;21.05;78.24
53932;BME280;39844;52.496;13.482;2023-06-22T00:16:28;101632.06;;;21.00;77.53
53932;BME280;39844;52.496;13.482;2023-06-22T00:18:54;101624.03;;;21.00;78.16
53932;BME280;39844;52.496;13.482;2023-06-22T00:21:19;101631.94;;;21.05;78.85
53932;BME280;39844;52.496;13.482;2023-06-22T00:23:44;101639.97;;;21.03;78.28
53932;BME280;39844;52.496;13.482;2023-06-22T00:26:10;101643.59;;;21.02;78.07
53932;BME280;39844;52.496;13.482;2023-06-22T00:28:35;101651.59;;;21.02;77.08
53932;BME280;39844;52.496;13.482;2023-06-22T00:31:00;101653.41;;;21.00;77.05
53932;BME280;39844;52.496;13.482;2023-06-22T00:33:26;101651.69;;;20.99;77.23
53932;BME280;39844;52.496;13.482;2023-06-22T00:35:52;101651.69;;;20.99;76.69
53932;BME280;39844;52.496;13.482;2023-06-22T00:38:17;101650.72;;;21.02;76.83
53932;BME280;39844;52.496;13.482;2023-06-22T00:40:42;101659.47;;;21.05;76.13
53932;BME280;39844;52.496;13.482;2023-06-22T00:43:08;101653.19;;;21.08;76.32
53932;BME280;39844;52.496;13.482;2023-06-22T00:45:33;101657.69;;;21.07;76.41
53932;BME280;39844;52.496;13.482;2023-06-22T00:47:59;101655.97;;;21.05;76.78
53932;BME280;39844;52.496;13.482;2023-06-22T00:50:30;101648.84;;;21.04;77.15
53932;BME280;39844;52.496;13.482;2023-06-22T00:52:56;101657.78;;;21.03;77.44
53932;BME280;39844;52.496;13.482;2023-06-22T00:55:22;101660.50;;;21.01;77.93
53932;BME280;39844;52.496;13.482;2023-06-22T00:57:48;101651.78;;;20.96;77.53
53932;BME280;39844;52.496;13.482;2023-06-22T01:00:14;101654.50;;;20.95;77.93
53932;BME280;39844;52.496;13.482;2023-06-22T01:02:40;101664.47;;;20.90;77.94
53932;BME280;39844;52.496;13.482;2023-06-22T01:05:05;101663.72;;;20.85;78.91
53932;BME280;39844;52.496;13.482;2023-06-22T01:07:35;101662.94;;;20.81;79.45
53932;BME280;39844;52.496;13.482;2023-06-22T01:13:07;101659.59;;;20.74;80.24
53932;BME280;39844;52.496;13.482;2023-06-22T01:15:49;101663.13;;;20.75;79.76
53932;BME280;39844;52.496;13.482;2023-06-22T01:18:18;101667.53;;;20.76;79.84
53932;BME280;39844;52.496;13.482;2023-06-22T01:20:45;101664.88;;;20.76;79.53
53932;BME280;39844;52.496;13.482;2023-06-22T01:23:27;101677.31;;;20.77;79.70
53932;BME280;39844;52.496;13.482;2023-06-22T01:31:12;101673.78;;;20.75;80.53
53932;BME280;39844;52.496;13.482;2023-06-22T01:33:42;101676.53;;;20.73;80.88
53932;BME280;39844;52.496;13.482;2023-06-22T01:36:08;101676.59;;;20.70;81.44
53932;BME280;39844;52.496;13.482;2023-06-22T01:38:35;101682.03;;;20.67;81.43
53932;BME280;39844;52.496;13.482;2023-06-22T01:41:02;101686.59;;;20.64;81.43
53932;BME280;39844;52.496;13.482;2023-06-22T01:43:28;101681.34;;;20.61;81.81
53932;BME280;39844;52.496;13.482;2023-06-22T01:45:55;101685.88;;;20.59;82.74
53932;BME280;39844;52.496;13.482;2023-06-22T01:48:21;101684.13;;;20.58;82.84
53932;BME280;39844;52.496;13.482;2023-06-22T01:50:47;101688.63;;;20.56;82.85
53932;BME280;39844;52.496;13.482;2023-06-22T01:53:12;101690.47;;;20.54;83.22
53932;BME280;39844;52.496;13.482;2023-06-22T01:55:38;101696.78;;;20.51;82.92
53932;BME280;39844;52.496;13.482;2023-06-22T01:58:03;101695.88;;;20.51;83.70
53932;BME280;39844;52.496;13.482;2023-06-22T02:00:31;101688.78;;;20.50;83.21
53932;BME280;39844;52.496;13.482;2023-06-22T02:03:06;101689.72;;;20.49;83.75
53932;BME280;39844;52.496;13.482;2023-06-22T02:05:39;101691.53;;;20.48;83.57
53932;BME280;39844;52.496;13.482;2023-06-22T02:08:38;101693.31;;;20.48;83.92
53932;BME280;39844;52.496;13.482;2023-06-22T02:11:05;101698.59;;;20.49;84.54
53932;BME280;39844;52.496;13.482;2023-06-22T02:13:32;101689.69;;;20.50;84.57
53932;BME280;39844;52.496;13.482;2023-06-22T02:15:58;101692.34;;;20.50;85.37
53932;BME280;39844;52.496;13.482;2023-06-22T02:18:23;101680.78;;;20.50;85.48
53932;BME280;39844;52.496;13.482;2023-06-22T02:20:48;101688.03;;;20.46;85.59
53932;BME280;39844;52.496;13.482;2023-06-22T02:23:14;101694.31;;;20.44;86.38
53932;BME280;39844;52.496;13.482;2023-06-22T02:25:39;101702.34;;;20.42;87.10
53932;BME280;39844;52.496;13.482;2023-06-22T02:28:04;101714.00;;;20.40;87.35
53932;BME280;39844;52.496;13.482;2023-06-22T02:30:30;101713.25;;;20.35;87.52
53932;BME280;39844;52.496;13.482;2023-06-22T02:32:55;101714.19;;;20.34;88.38
53932;BME280;39844;52.496;13.482;2023-06-22T02:35:20;101719.53;;;20.34;88.26
53932;BME280;39844;52.496;13.482;2023-06-22T02:37:45;101722.19;;;20.34;88.92
53932;BME280;39844;52.496;13.482;2023-06-22T02:40:11;101722.13;;;20.35;88.90
53932;BME280;39844;52.496;13.482;2023-06-22T02:42:37;101715.84;;;20.38;89.22
53932;BME280;39844;52.496;13.482;2023-06-22T02:45:03;101713.09;;;20.39;89.67
53932;BME280;39844;52.496;13.482;2023-06-22T02:47:28;101717.47;;;20.42;89.74
53932;BME280;39844;52.496;13.482;2023-06-22T02:49:54;101719.25;;;20.43;90.07
53932;BME280;39844;52.496;13.482;2023-06-22T02:52:19;101712.16;;;20.42;89.27
53932;BME280;39844;52.496;13.482;2023-06-22T02:54:44;101713.00;;;20.44;89.59
53932;BME280;39844;52.496;13.482;2023-06-22T02:57:10;101709.41;;;20.45;89.32
53932;BME280;39844;52.496;13.482;2023-06-22T02:59:36;101715.56;;;20.47;88.77
53932;BME280;39844;52.496;13.482;2023-06-22T03:02:01;101711.97;;;20.48;89.16
53932;BME280;39844;52.496;13.482;2023-06-22T03:04:26;101710.13;;;20.50;88.03
53932;BME280;39844;52.496;13.482;2023-06-22T03:06:52;101706.56;;;20.51;88.18
53932;BME280;39844;52.496;13.482;2023-06-22T03:09:17;101695.88;;;20.51;86.95
53932;BME280;39844;52.496;13.482;2023-06-22T03:11:42;101702.94;;;20.52;86.14
53932;BME280;39844;52.496;13.482;2023-06-22T03:14:08;101704.72;;;20.53;85.94
53932;BME280;39844;52.496;13.482;2023-06-22T03:16:33;101703.75;;;20.55;85.69
53932;BME280;39844;52.496;13.482;2023-06-22T03:18:58;101704.63;;;20.56;85.64
53932;BME280;39844;52.496;13.482;2023-06-22T03:21:26;101711.69;;;20.57;85.81
53932;BME280;39844;52.496;13.482;2023-06-22T03:23:52;101701.16;;;20.54;84.27
53932;BME280;39844;52.496;13.482;2023-06-22T03:26:18;101700.34;;;20.50;83.52
53932;BME280;39844;52.496;13.482;2023-06-22T03:28:43;101703.91;;;20.49;83.40
53932;BME280;39844;52.496;13.482;2023-06-22T03:31:09;101704.81;;;20.50;82.90
53932;BME280;39844;52.496;13.482;2023-06-22T03:33:34;101693.31;;;20.48;82.45
53932;BME280;39844;52.496;13.482;2023-06-22T03:35:59;101708.41;;;20.49;82.27
53932;BME280;39844;52.496;13.482;2023-06-22T03:38:25;101700.41;;;20.49;81.93
53932;BME280;39844;52.496;13.482;2023-06-22T03:40:50;101699.53;;;20.48;81.51
53932;BME280;39844;52.496;13.482;2023-06-22T03:43:15;101710.22;;;20.47;80.93
53932;BME280;39844;52.496;13.482;2023-06-22T03:45:40;101710.22;;;20.47;80.11
53932;BME280;39844;52.496;13.482;2023-06-22T03:48:06;101714.66;;;20.48;80.44
53932;BME280;39844;52.496;13.482;2023-06-22T03:50:31;101716.44;;;20.47;78.89
53932;BME280;39844;52.496;13.482;2023-06-22T03:52:56;101702.22;;;20.47;78.80
53932;BME280;39844;52.496;13.482;2023-06-22T03:55:22;101713.75;;;20.49;79.50
53932;BME280;39844;52.496;13.482;2023-06-22T03:57:47;101706.56;;;20.51;79.68
53932;BME280;39844;52.496;13.482;2023-06-22T04:00:13;101698.59;;;20.49;79.06
53932;BME280;39844;52.496;13.482;2023-06-22T04:02:38;101704.81;;;20.50;78.79
53932;BME280;39844;52.496;13.482;2023-06-22T04:05:04;101706.56;;;20.51;78.88
53932;BME280;39844;52.496;13.482;2023-06-22T04:07:30;101710.94;;;20.53;78.63
53932;BME280;39844;52.496;13.482;2023-06-22T04:09:55;101715.34;;;20.54;78.81
53932;BME280;39844;52.496;13.482;2023-06-22T04:12:20;101714.50;;;20.52;78.33
53932;BME280;39844;52.496;13.482;2023-06-22T04:14:45;101718.06;;;20.53;78.09
53932;BME280;39844;52.496;13.482;2023-06-22T04:17:11;101717.16;;;20.54;78.79
53932;BME280;39844;52.496;13.482;2023-06-22T04:19:36;101728.72;;;20.53;78.63
53932;BME280;39844;52.496;13.482;2023-06-22T04:22:01;101720.59;;;20.57;78.56
53932;BME280;39844;52.496;13.482;2023-06-22T04:24:27;101713.31;;;20.62;79.61
53932;BME280;39844;52.496;13.482;2023-06-22T04:26:52;101720.34;;;20.65;79.70
53932;BME280;39844;52.496;13.482;2023-06-22T04:29:17;101732.78;;;20.66;78.99
53932;BME280;39844;52.496;13.482;2023-06-22T04:31:42;101732.72;;;20.67;79.10
53932;BME280;39844;52.496;13.482;2023-06-22T04:34:09;101741.63;;;20.68;79.18
53932;BME280;39844;52.496;13.482;2023-06-22T04:36:40;101739.78;;;20.70;78.47
53932;BME280;39844;52.496;13.482;2023-06-22T04:39:07;101736.88;;;20.77;77.94
53932;BME280;39844;52.496;13.482;2023-06-22T04:41:32;101738.13;;;20.95;77.15
53932;BME280;39844;52.496;13.482;2023-06-22T04:43:58;101737.44;;;21.18;75.92
53932;BME280;39844;52.496;13.482;2023-06-22T04:46:23;101743.09;;;21.36;74.21
53932;BME280;39844;52.496;13.482;2023-06-22T04:48:48;101745.41;;;21.47;72.80
53932;BME280;39844;52.496;13.482;2023-06-22T04:51:14;101736.31;;;21.53;71.10
53932;BME280;39844;52.496;13.482;2023-06-22T04:53:39;101747.00;;;21.53;70.96
53932;BME280;39844;52.496;13.482;2023-06-22T04:56:04;101745.22;;;21.53;70.43
53932;BME280;39844;52.496;13.482;2023-06-22T04:58:29;101739.75;;;21.56;71.01
53932;BME280;39844;52.496;13.482;2023-06-22T05:00:57;101739.75;;;21.56;70.46
53932;BME280;39844;52.496;13.482;2023-06-22T05:03:24;101752.09;;;21.60;71.69
53932;BME280;39844;52.496;13.482;2023-06-22T05:05:49;101747.41;;;21.67;71.66
53932;BME280;39844;52.496;13.482;2023-06-22T05:08:16;101736.53;;;21.73;72.13
53932;BME280;39844;52.496;13.482;2023-06-22T05:10:41;101749.75;;;21.77;71.77
53932;BME280;39844;52.496;13.482;2023-06-22T05:13:06;101738.78;;;21.86;71.78
53932;BME280;39844;52.496;13.482;2023-06-22T05:15:32;101743.09;;;21.90;71.24
53932;BME280;39844;52.496;13.482;2023-06-22T05:17:57;101746.41;;;21.97;70.84
53932;BME280;39844;52.496;13.482;2023-06-22T05:20:22;101750.03;;;21.96;70.53
53932;BME280;39844;52.496;13.482;2023-06-22T05:22:47;101743.81;;;21.95;70.33
53932;BME280;39844;52.496;13.482;2023-06-22T05:25:13;101748.97;;;22.00;71.00
53932;BME280;39844;52.496;13.482;2023-06-22T05:27:38;101745.31;;;22.02;69.74
53932;BME280;39844;52.496;13.482;2023-06-22T05:30:04;101749.78;;;22.02;68.64
53932;BME280;39844;52.496;13.482;2023-06-22T05:32:29;101756.19;;;21.98;68.62
53932;BME280;39844;52.496;13.482;2023-06-22T05:34:54;101757.09;;;21.97;68.41
53932;BME280;39844;52.496;13.482;2023-06-22T05:37:20;101749.94;;;21.99;67.93
53932;BME280;39844;52.496;13.482;2023-06-22T05:39:45;101746.31;;;22.00;67.52
53932;BME280;39844;52.496;13.482;2023-06-22T05:42:10;101755.16;;;22.02;67.47
53932;BME280;39844;52.496;13.482;2023-06-22T05:44:35;101753.03;;;22.12;67.43
53932;BME280;39844;52.496;13.482;2023-06-22T05:47:01;101748.25;;;22.21;66.94
53932;BME280;39844;52.496;13.482;2023-06-22T05:49:26;101754.41;;;22.23;65.40
53932;BME280;39844;52.496;13.482;2023-06-22T05:51:51;101761.53;;;22.23;65.40
53932;BME280;39844;52.496;13.482;2023-06-22T05:54:17;101771.38;;;22.22;65.60
53932;BME280;39844;52.496;13.482;2023-06-22T05:56:42;101770.56;;;22.20;65.62
53932;BME280;39844;52.496;13.482;2023-06-22T05:59:07;101778.41;;;22.25;66.18
53932;BME280;39844;52.496;13.482;2023-06-22T06:01:32;101780.94;;;22.29;66.67
53932;BME280;39844;52.496;13.482;2023-06-22T06:03:58;101779.91;;;22.33;65.74
53932;BME280;39844;52.496;13.482;2023-06-22T06:06:23;101773.66;;;22.33;65.48
53932;BME280;39844;52.496;13.482;2023-06-22T06:08:48;101776.06;;;22.40;66.05
53932;BME280;39844;52.496;13.482;2023-06-22T06:11:14;101775.75;;;22.49;66.64
53932;BME280;39844;52.496;13.482;2023-06-22T06:13:39;101775.50;;;22.55;66.53
53932;BME280;39844;52.496;13.482;2023-06-22T06:16:05;101770.84;;;22.60;66.35
53932;BME280;39844;52.496;13.482;2023-06-22T06:18:30;101774.41;;;22.62;65.48
53932;BME280;39844;52.496;13.482;2023-06-22T06:20:55;101768.09;;;22.63;63.93
53932;BME280;39844;52.496;13.482;2023-06-22T06:23:21;101760.16;;;22.62;64.37
53932;BME280;39844;52.496;13.482;2023-06-22T06:25:46;101758.34;;;22.62;64.12
53932;BME280;39844;52.496;13.482;2023-06-22T06:28:11;101753.00;;;22.62;64.40
53932;BME280;39844;52.496;13.482;2023-06-22T06:30:37;101752.75;;;22.69;65.31
53932;BME280;39844;52.496;13.482;2023-06-22T06:33:02;101749.03;;;22.73;64.58
53932;BME280;39844;52.496;13.482;2023-06-22T06:35:27;101774.06;;;22.72;63.48
53932;BME280;39844;52.496;13.482;2023-06-22T06:37:53;101770.56;;;22.70;63.88
53932;BME280;39844;52.496;13.482;2023-06-22T06:40:18;101780.03;;;22.78;63.99
53932;BME280;39844;52.496;13.482;2023-06-22T06:42:46;101770.88;;;22.85;63.71
53932;BME280;39844;52.496;13.482;2023-06-22T06:45:12;101766.03;;;22.95;62.60
53932;BME280;39844;52.496;13.482;2023-06-22T06:47:38;101763.81;;;23.06;62.65
53932;BME280;39844;52.496;13.482;2023-06-22T06:50:04;101767.75;;;23.19;62.14
53932;BME280;39844;52.496;13.482;2023-06-22T06:52:30;101755.72;;;23.29;61.10
53932;BME280;39844;52.496;13.482;2023-06-22T06:54:55;101760.66;;;23.41;60.11
53932;BME280;39844;52.496;13.482;2023-06-22T06:57:20;101757.53;;;23.52;59.37
53932;BME280;39844;52.496;13.482;2023-06-22T06:59:46;101760.63;;;23.63;59.15
53932;BME280;39844;52.496;13.482;2023-06-22T07:02:11;101757.50;;;23.73;58.33
53932;BME280;39844;52.496;13.482;2023-06-22T07:04:36;101762.63;;;23.79;57.71
53932;BME280;39844;52.496;13.482;2023-06-22T07:07:02;101751.63;;;23.85;57.49
53932;BME280;39844;52.496;13.482;2023-06-22T07:09:27;101749.59;;;23.90;57.59
53932;BME280;39844;52.496;13.482;2023-06-22T07:11:53;101746.88;;;23.92;58.21
53932;BME280;39844;52.496;13.482;2023-06-22T07:14:19;101740.88;;;23.85;56.52
53932;BME280;39844;52.496;13.482;2023-06-22T07:16:45;101742.63;;;23.86;57.25
53932;BME280;39844;52.496;13.482;2023-06-22T07:19:11;101741.97;;;23.81;56.88
53932;BME280;39844;52.496;13.482;2023-06-22T07:21:37;101736.28;;;23.89;57.64
53932;BME280;39844;52.496;13.482;2023-06-22T07:24:04;101729.69;;;23.96;56.82
53932;BME280;39844;52.496;13.482;2023-06-22T07:26:29;101732.97;;;24.03;56.58
53932;BME280;39844;52.496;13.482;2023-06-22T07:28:54;101726.56;;;24.07;54.72
53932;BME280;39844;52.496;13.482;2023-06-22T07:31:20;101732.19;;;24.21;55.15
53932;BME280;39844;52.496;13.482;2023-06-22T07:33:45;101726.31;;;24.33;54.58
53932;BME280;39844;52.496;13.482;2023-06-22T07:36:10;101722.53;;;24.37;53.85
53932;BME280;39844;52.496;13.482;2023-06-22T07:38:36;101721.25;;;24.45;54.28
53932;BME280;39844;52.496;13.482;2023-06-22T07:41:01;101719.06;;;24.53;53.46
53932;BME280;39844;52.496;13.482;2023-06-22T07:43:27;101713.03;;;24.69;54.15
53932;BME280;39844;52.496;13.482;2023-06-22T07:45:52;101715.34;;;24.76;52.82
53932;BME280;39844;52.496;13.482;2023-06-22T07:48:20;101709.66;;;24.84;51.28
53932;BME280;39844;52.496;13.482;2023-06-22T07:50:45;101711.88;;;24.93;50.02
53932;BME280;39844;52.496;13.482;2023-06-22T07:53:11;101712.75;;;24.93;47.98
53932;BME280;39844;52.496;13.482;2023-06-22T07:55:36;101712.75;;;24.93;47.31
53932;BME280;39844;52.496;13.482;2023-06-22T07:58:01;101708.09;;;24.97;47.51
53932;BME280;39844;52.496;13.482;2023-06-22T08:00:26;101704.00;;;25.07;47.69
53932;BME280;39844;52.496;13.482;2023-06-22T08:02:52;101704.28;;;25.20;47.81
53932;BME280;39844;52.496;13.482;2023-06-22T08:05:17;101712.00;;;25.27;47.56
53932;BME280;39844;52.496;13.482;2023-06-22T08:07:42;101718.66;;;25.37;47.82
53932;BME280;39844;52.496;13.482;2023-06-22T08:10:10;101709.59;;;25.40;46.62
53932;BME280;39844;52.496;13.482;2023-06-22T08:12:36;101708.47;;;25.44;47.45
53932;BME280;39844;52.496;13.482;2023-06-22T08:15:02;101706.59;;;25.46;45.97
53932;BME280;39844;52.496;13.482;2023-06-22T08:17:30;101701.94;;;25.49;46.28
53932;BME280;39844;52.496;13.482;2023-06-22T08:19:55;101720.25;;;25.60;47.58
53932;BME280;39844;52.496;13.482;2023-06-22T08:22:20;101710.91;;;25.67;47.41
53932;BME280;39844;52.496;13.482;2023-06-22T08:24:46;101716.59;;;25.78;47.30
53932;BME280;39844;52.496;13.482;2023-06-22T08:27:11;101707.19;;;25.87;47.43
53932;BME280;39844;52.496;13.482;2023-06-22T08:29:36;101708.31;;;26.00;47.77
53932;BME280;39844;52.496;13.482;2023-06-22T08:32:02;101705.34;;;26.04;46.75
53932;BME280;39844;52.496;13.482;2023-06-22T08:34:27;101709.72;;;26.07;46.39
53932;BME280;39844;52.496;13.482;2023-06-22T08:36:52;101707.91;;;26.07;46.47
53932;BME280;39844;52.496;13.482;2023-06-22T08:39:19;101702.13;;;26.15;45.62
53932;BME280;39844;52.496;13.482;2023-06-22T08:41:44;101700.94;;;26.20;45.64
53932;BME280;39844;52.496;13.482;2023-06-22T08:44:10;101700.94;;;26.20;45.01
53932;BME280;39844;52.496;13.482;2023-06-22T08:46:35;101707.22;;;26.21;45.08
53932;BME280;39844;52.496;13.482;2023-06-22T08:49:00;101699.03;;;26.22;45.65
53932;BME280;39844;52.496;13.482;2023-06-22T08:51:26;101711.84;;;26.34;45.84
53932;BME280;39844;52.496;13.482;2023-06-22T08:53:51;101701.69;;;26.40;45.84
53932;BME280;39844;52.496;13.482;2023-06-22T08:56:16;101699.28;;;26.51;45.44
53932;BME280;39844;52.496;13.482;2023-06-22T08:58:44;101702.34;;;26.60;45.32
53932;BME280;39844;52.496;13.482;2023-06-22T09:01:09;101704.94;;;26.79;46.94
53932;BME280;39844;52.496;13.482;2023-06-22T09:03:37;101704.06;;;26.94;45.42
53932;BME280;39844;52.496;13.482;2023-06-22T09:06:03;101695.38;;;27.05;44.84
53932;BME280;39844;52.496;13.482;2023-06-22T09:08:28;101701.56;;;27.22;45.67
53932;BME280;39844;52.496;13.482;2023-06-22T09:10:53;101702.34;;;27.40;44.28
53932;BME280;39844;52.496;13.482;2023-06-22T09:13:19;101700.75;;;27.51;42.79
53932;BME280;39844;52.496;13.482;2023-06-22T09:15:44;101694.81;;;27.61;43.00
53932;BME280;39844;52.496;13.482;2023-06-22T09:18:13;101696.19;;;27.68;41.47
53932;BME280;39844;52.496;13.482;2023-06-22T09:20:38;101686.59;;;27.78;42.13
53932;BME280;39844;52.496;13.482;2023-06-22T09:23:04;101685.25;;;27.85;41.66
53932;BME280;39844;52.496;13.482;2023-06-22T09:25:29;101690.47;;;27.88;42.62
53932;BME280;39844;52.496;13.482;2023-06-22T09:27:54;101684.41;;;27.98;41.98
53932;BME280;39844;52.496;13.482;2023-06-22T09:30:20;101682.81;;;28.10;42.51
53932;BME280;39844;52.496;13.482;2023-06-22T09:32:45;101687.75;;;28.17;42.49
53932;BME280;39844;52.496;13.482;2023-06-22T09:35:10;101682.06;;;28.22;42.87
53932;BME280;39844;52.496;13.482;2023-06-22T09:37:36;101680.91;;;28.26;41.74
53932;BME280;39844;52.496;13.482;2023-06-22T09:40:01;101676.28;;;28.28;41.79
53932;BME280;39844;52.496;13.482;2023-06-22T09:42:27;101677.94;;;28.45;42.57
53932;BME280;39844;52.496;13.482;2023-06-22T09:44:52;101674.19;;;28.61;42.70
53932;BME280;39844;52.496;13.482;2023-06-22T09:47:17;101670.78;;;28.72;41.74
53932;BME280;39844;52.496;13.482;2023-06-22T09:49:42;101669.28;;;28.68;40.74
53932;BME280;39844;52.496;13.482;2023-06-22T09:52:08;101668.47;;;28.66;41.36
53932;BME280;39844;52.496;13.482;2023-06-22T09:54:33;101667.81;;;28.62;40.55
53932;BME280;39844;52.496;13.482;2023-06-22T09:56:58;101668.78;;;28.61;40.24
53932;BME280;39844;52.496;13.482;2023-06-22T09:59:24;101661.25;;;28.66;40.43
53932;BME280;39844;52.496;13.482;2023-06-22T10:01:49;101663.56;;;28.72;40.93
53932;BME280;39844;52.496;13.482;2023-06-22T10:04:14;101674.63;;;28.82;42.34
53932;BME280;39844;52.496;13.482;2023-06-22T10:06:39;101668.84;;;28.88;41.75
53932;BME280;39844;52.496;13.482;2023-06-22T10:09:05;101672.88;;;28.95;41.86
53932;BME280;39844;52.496;13.482;2023-06-22T10:11:30;101668.41;;;29.08;43.01
53932;BME280;39844;52.496;13.482;2023-06-22T10:13:55;101670.75;;;29.27;43.41
53932;BME280;39844;52.496;13.482;2023-06-22T10:16:21;101668.22;;;29.38;40.99
53932;BME280;39844;52.496;13.482;2023-06-22T10:18:46;101669.13;;;29.51;39.91
53932;BME280;39844;52.496;13.482;2023-06-22T10:21:11;101668.41;;;29.62;39.69
53932;BME280;39844;52.496;13.482;2023-06-22T10:23:36;101658.94;;;29.81;39.69
53932;BME280;39844;52.496;13.482;2023-06-22T10:26:02;101654.19;;;29.97;39.57
53932;BME280;39844;52.496;13.482;2023-06-22T10:28:27;101660.03;;;30.29;39.16
53932;BME280;39844;52.496;13.482;2023-06-22T10:30:52;101658.19;;;30.55;39.15
53932;BME280;39844;52.496;13.482;2023-06-22T10:33:18;101649.06;;;30.69;37.57
53932;BME280;39844;52.496;13.482;2023-06-22T10:35:43;101648.94;;;30.70;37.00
53932;BME280;39844;52.496;13.482;2023-06-22T10:38:08;101645.31;;;30.95;37.13
53932;BME280;39844;52.496;13.482;2023-06-22T10:40:34;101644.16;;;31.10;36.42
53932;BME280;39844;52.496;13.482;2023-06-22T10:42:59;101629.31;;;31.26;36.06
53932;BME280;39844;52.496;13.482;2023-06-22T10:45:24;101640.13;;;31.63;37.25
53932;BME280;39844;52.496;13.482;2023-06-22T10:47:50;101631.16;;;31.84;35.77
53932;BME280;39844;52.496;13.482;2023-06-22T10:50:15;101631.94;;;32.09;37.16
53932;BME280;39844;52.496;13.482;2023-06-22T10:52:40;101620.47;;;32.27;35.66
53932;BME280;39844;52.496;13.482;2023-06-22T10:55:06;101615.56;;;32.21;34.57
53932;BME280;39844;52.496;13.482;2023-06-22T10:57:31;101611.34;;;32.28;36.16
53932;BME280;39844;52.496;13.482;2023-06-22T10:59:57;101622.34;;;32.38;33.37
53932;BME280;39844;52.496;13.482;2023-06-22T11:02:23;101616.25;;;32.79;31.95
53932;BME280;39844;52.496;13.482;2023-06-22T11:04:48;101611.00;;;32.98;32.31
53932;BME280;39844;52.496;13.482;2023-06-22T11:07:15;101607.16;;;33.43;32.98
53932;BME280;39844;52.496;13.482;2023-06-22T11:09:40;101605.53;;;33.72;31.05
53932;BME280;39844;52.496;13.482;2023-06-22T11:12:07;101600.47;;;33.89;31.23
53932;BME280;39844;52.496;13.482;2023-06-22T11:14:32;101598.53;;;33.80;30.52
53932;BME280;39844;52.496;13.482;2023-06-22T11:16:57;101592.34;;;33.98;31.65
53932;BME280;39844;52.496;13.482;2023-06-22T11:19:23;101598.38;;;34.02;32.04
53932;BME280;39844;52.496;13.482;2023-06-22T11:21:48;101598.88;;;33.86;31.89
53932;BME280;39844;52.496;13.482;2023-06-22T11:24:13;101599.19;;;33.72;32.69
53932;BME280;39844;52.496;13.482;2023-06-22T11:26:39;101581.66;;;33.86;32.92
53932;BME280;39844;52.496;13.482;2023-06-22T11:29:04;101582.97;;;33.91;30.35
53932;BME280;39844;52.496;13.482;2023-06-22T11:31:29;101579.22;;;33.62;30.77
53932;BME280;39844;52.496;13.482;2023-06-22T11:33:55;101576.66;;;33.49;31.10
53932;BME280;39844;52.496;13.482;2023-06-22T11:36:20;101575.78;;;33.49;29.72
53932;BME280;39844;52.496;13.482;2023-06-22T11:38:46;101570.06;;;33.31;30.69
53932;BME280;39844;52.496;13.482;2023-06-22T11:41:11;101575.09;;;33.67;31.56
53932;BME280;39844;52.496;13.482;2023-06-22T11:43:36;101568.22;;;33.94;30.38
53932;BME280;39844;52.496;13.482;2023-06-22T11:46:03;101573.88;;;34.32;32.05
53932;BME280;39844;52.496;13.482;2023-06-22T11:48:29;101579.41;;;34.61;30.66
53932;BME280;39844;52.496;13.482;2023-06-22T11:50:54;101588.22;;;34.83;29.31
53932;BME280;39844;52.496;13.482;2023-06-22T11:53:20;101576.53;;;34.53;29.48
53932;BME280;39844;52.496;13.482;2023-06-22T11:55:46;101580.03;;;34.34;29.06
53932;BME280;39844;52.496;13.482;2023-06-22T11:58:11;101594.47;;;34.25;30.59
53932;BME280;39844;52.496;13.482;2023-06-22T12:00:36;101590.50;;;34.29;29.40
53932;BME280;39844;52.496;13.482;2023-06-22T12:03:02;101583.97;;;34.51;29.78
53932;BME280;39844;52.496;13.482;2023-06-22T12:05:27;101582.31;;;34.59;28.29
53932;BME280;39844;52.496;13.482;2023-06-22T12:07:57;101583.47;;;34.76;29.92
53932;BME280;39844;52.496;13.482;2023-06-22T12:10:23;101577.19;;;34.75;28.65
53932;BME280;39844;52.496;13.482;2023-06-22T12:12:48;101570.19;;;34.43;29.36
53932;BME280;39844;52.496;13.482;2023-06-22T12:15:14;101576.06;;;34.08;29.93
53932;BME280;39844;52.496;13.482;2023-06-22T12:17:40;101557.56;;;33.60;29.35
53932;BME280;39844;52.496;13.482;2023-06-22T12:20:06;101553.63;;;33.53;31.28
53932;BME280;39844;52.496;13.482;2023-06-22T12:22:32;101551.50;;;33.78;31.29
53932;BME280;39844;52.496;13.482;2023-06-22T12:24:58;101556.03;;;33.98;31.07
53932;BME280;39844;52.496;13.482;2023-06-22T12:27:23;101550.28;;;34.21;30.98
53932;BME280;39844;52.496;13.482;2023-06-22T12:29:48;101548.00;;;34.26;30.34
53932;BME280;39844;52.496;13.482;2023-06-22T12:32:14;101533.91;;;34.12;30.22
53932;BME280;39844;52.496;13.482;2023-06-22T12:34:42;101530.50;;;34.19;29.55
53932;BME280;39844;52.496;13.482;2023-06-22T12:37:08;101525.94;;;34.29;29.95
53932;BME280;39844;52.496;13.482;2023-06-22T12:39:34;101527.00;;;34.17;30.71
53932;BME280;39844;52.496;13.482;2023-06-22T12:41:59;101531.31;;;34.20;30.14